sensor_id;sensor_type;location;lat;lon;timestamp;P1;durP1;ratioP1;P2;durP2;ratioP2
75516;SDS011;64097;52.548;13.406;2023-09-08T06:01:17;8.50;;;7.68;;
75516;SDS011;64097;52.548;13.406;2023-09-08T06:03:43;7.55;;;6.85;;
75516;SDS011;64097;52.548;13.406;2023-09-08T06:06:09;8.93;;;7.32;;
75516;SDS011;64097;52.548;13.406;2023-09-08T06:08:34;8.27;;;7.47;;
75516;SDS011;64097;52.548;13.406;2023-09-08T06:11:00;8.15;;;7.38;;
75516;SDS011;64097;52.548;13.406;2023-09-08T06:13:26;9.75;;;8.75;;
75516;SDS011;64097;52.548;13.406;2023-09-08T06:15:51;11.35;;;8.40;;
75516;SDS011;64097;52.548;13.406;2023-09-08T06:18:17;8.88;;;7.97;;
75516;SDS011;64097;52.548;13.406;2023-09-08T06:20:43;7.97;;;7.25;;
75516;SDS011;64097;52.548;13.406;2023-09-08T06:23:10;9.90;;;8.90;;
75516;SDS011;64097;52.548;13.406;2023-09-08T06:28:01;9.10;;;7.55;;
75516;SDS011;64097;52.548;13.406;2023-09-08T06:30:29;7.55;;;6.85;;
75516;SDS011;64097;52.548;13.406;2023-09-08T06:32:55;8.48;;;7.43;;
75516;SDS011;64097;52.548;13.406;2023-09-08T06:35:21;7.20;;;6.57;;
75516;SDS011;64097;52.548;13.406;2023-09-08T06:40:12;7.78;;;7.05;;
75516;SDS011;64097;52.548;13.406;2023-09-08T06:42:38;8.05;;;7.30;;
75516;SDS011;64097;52.548;13.406;2023-09-08T06:45:04;7.32;;;6.65;;
75516;SDS011;64097;52.548;13.406;2023-09-08T06:47:30;8.02;;;7.22;;
75516;SDS011;64097;52.548;13.406;2023-09-08T06:52:21;7.72;;;7.03;;
75516;SDS011;64097;52.548;13.406;2023-09-08T06:54:47;9.27;;;7.97;;
75516;SDS011;64097;52.548;13.406;2023-09-08T06:57:12;8.10;;;7.35;;
75516;SDS011;64097;52.548;13.406;2023-09-08T07:02:04;7.05;;;6.35;;
75516;SDS011;64097;52.548;13.406;2023-09-08T07:04:30;7.10;;;6.40;;
75516;SDS011;64097;52.548;13.406;2023-09-08T07:09:22;6.57;;;5.97;;
75516;SDS011;64097;52.548;13.406;2023-09-08T07:11:48;8.43;;;7.63;;
75516;SDS011;64097;52.548;13.406;2023-09-08T07:16:39;7.57;;;6.88;;
75516;SDS011;64097;52.548;13.406;2023-09-08T07:19:05;9.32;;;8.43;;
75516;SDS011;64097;52.548;13.406;2023-09-08T07:23:57;6.78;;;6.18;;
75516;SDS011;64097;52.548;13.406;2023-09-08T07:26:23;7.47;;;6.78;;
75516;SDS011;64097;52.548;13.406;2023-09-08T07:28:49;7.38;;;6.70;;
75516;SDS011;64097;52.548;13.406;2023-09-08T07:31:15;7.82;;;7.10;;
75516;SDS011;64097;52.548;13.406;2023-09-08T07:33:41;8.57;;;7.78;;
75516;SDS011;64097;52.548;13.406;2023-09-08T07:36:07;6.78;;;6.18;;
75516;SDS011;64097;52.548;13.406;2023-09-08T07:38:33;7.50;;;6.80;;
75516;SDS011;64097;52.548;13.406;2023-09-08T07:41:00;8.38;;;7.10;;
75516;SDS011;64097;52.548;13.406;2023-09-08T07:43:27;7.20;;;6.38;;
75516;SDS011;64097;52.548;13.406;2023-09-08T07:45:53;9.95;;;6.00;;
75516;SDS011;64097;52.548;13.406;2023-09-08T07:48:19;10.48;;;6.57;;
75516;SDS011;64097;52.548;13.406;2023-09-08T07:50:44;7.45;;;6.70;;
75516;SDS011;64097;52.548;13.406;2023-09-08T07:53:10;10.20;;;6.80;;
75516;SDS011;64097;52.548;13.406;2023-09-08T07:58:02;7.60;;;5.88;;
75516;SDS011;64097;52.548;13.406;2023-09-08T08:00:30;6.82;;;5.47;;
75516;SDS011;64097;52.548;13.406;2023-09-08T08:02:57;14.52;;;6.43;;
75516;SDS011;64097;52.548;13.406;2023-09-08T08:05:23;6.43;;;5.38;;
75516;SDS011;64097;52.548;13.406;2023-09-08T08:07:50;6.35;;;5.75;;
75516;SDS011;64097;52.548;13.406;2023-09-08T08:10:16;6.45;;;5.82;;
75516;SDS011;64097;52.548;13.406;2023-09-08T08:12:42;6.32;;;5.68;;
75516;SDS011;64097;52.548;13.406;2023-09-08T08:15:09;6.22;;;5.63;;
75516;SDS011;64097;52.548;13.406;2023-09-08T08:17:35;6.20;;;5.60;;
75516;SDS011;64097;52.548;13.406;2023-09-08T08:22:34;6.35;;;5.75;;
75516;SDS011;64097;52.548;13.406;2023-09-08T08:25:04;5.90;;;5.30;;
75516;SDS011;64097;52.548;13.406;2023-09-08T08:27:30;6.93;;;6.00;;
75516;SDS011;64097;52.548;13.406;2023-09-08T08:29:57;7.65;;;6.85;;
75516;SDS011;64097;52.548;13.406;2023-09-08T08:32:25;7.45;;;6.53;;
75516;SDS011;64097;52.548;13.406;2023-09-08T08:34:54;7.93;;;6.63;;
75516;SDS011;64097;52.548;13.406;2023-09-08T08:39:46;5.97;;;5.45;;
75516;SDS011;64097;52.548;13.406;2023-09-08T08:42:12;8.15;;;6.53;;
75516;SDS011;64097;52.548;13.406;2023-09-08T08:44:39;6.50;;;5.90;;
75516;SDS011;64097;52.548;13.406;2023-09-08T08:47:09;8.27;;;6.38;;
75516;SDS011;64097;52.548;13.406;2023-09-08T08:49:35;6.88;;;6.28;;
75516;SDS011;64097;52.548;13.406;2023-09-08T08:52:03;7.20;;;6.45;;
75516;SDS011;64097;52.548;13.406;2023-09-08T08:54:37;5.95;;;5.45;;
75516;SDS011;64097;52.548;13.406;2023-09-08T08:57:04;7.32;;;5.88;;
75516;SDS011;64097;52.548;13.406;2023-09-08T08:59:30;6.32;;;5.40;;
75516;SDS011;64097;52.548;13.406;2023-09-08T09:01:57;5.90;;;5.40;;
75516;SDS011;64097;52.548;13.406;2023-09-08T09:04:24;7.20;;;5.57;;
75516;SDS011;64097;52.548;13.406;2023-09-08T09:09:22;8.32;;;5.57;;
75516;SDS011;64097;52.548;13.406;2023-09-08T09:11:49;8.98;;;5.28;;
75516;SDS011;64097;52.548;13.406;2023-09-08T09:14:15;6.13;;;5.50;;
75516;SDS011;64097;52.548;13.406;2023-09-08T09:16:42;9.00;;;6.13;;
75516;SDS011;64097;52.548;13.406;2023-09-08T09:19:09;8.93;;;6.63;;
75516;SDS011;64097;52.548;13.406;2023-09-08T09:21:46;8.77;;;6.53;;
75516;SDS011;64097;52.548;13.406;2023-09-08T09:24:14;9.85;;;6.13;;
75516;SDS011;64097;52.548;13.406;2023-09-08T09:26:40;7.28;;;5.50;;
75516;SDS011;64097;52.548;13.406;2023-09-08T09:29:12;6.38;;;5.78;;
75516;SDS011;64097;52.548;13.406;2023-09-08T09:31:54;5.93;;;5.43;;
75516;SDS011;64097;52.548;13.406;2023-09-08T09:34:28;5.70;;;5.20;;
75516;SDS011;64097;52.548;13.406;2023-09-08T09:36:53;5.25;;;4.75;;
75516;SDS011;64097;52.548;13.406;2023-09-08T09:39:20;6.15;;;5.55;;
75516;SDS011;64097;52.548;13.406;2023-09-08T09:41:47;5.45;;;4.95;;
75516;SDS011;64097;52.548;13.406;2023-09-08T09:44:13;5.63;;;5.13;;
75516;SDS011;64097;52.548;13.406;2023-09-08T09:46:46;4.85;;;4.45;;
75516;SDS011;64097;52.548;13.406;2023-09-08T09:49:12;5.90;;;5.40;;
75516;SDS011;64097;52.548;13.406;2023-09-08T09:51:42;6.40;;;5.80;;
75516;SDS011;64097;52.548;13.406;2023-09-08T09:54:09;8.35;;;5.80;;
75516;SDS011;64097;52.548;13.406;2023-09-08T09:56:37;6.05;;;5.45;;
75516;SDS011;64097;52.548;13.406;2023-09-08T09:59:03;5.53;;;4.97;;
75516;SDS011;64097;52.548;13.406;2023-09-08T10:01:30;5.13;;;4.63;;
75516;SDS011;64097;52.548;13.406;2023-09-08T10:03:57;5.20;;;4.70;;
75516;SDS011;64097;52.548;13.406;2023-09-08T10:06:25;5.18;;;4.68;;
75516;SDS011;64097;52.548;13.406;2023-09-08T10:08:51;5.15;;;4.65;;
75516;SDS011;64097;52.548;13.406;2023-09-08T10:11:20;4.85;;;4.35;;
75516;SDS011;64097;52.548;13.406;2023-09-08T10:13:47;5.18;;;4.68;;
75516;SDS011;64097;52.548;13.406;2023-09-08T10:16:16;4.95;;;4.55;;
75516;SDS011;64097;52.548;13.406;2023-09-08T10:18:46;5.25;;;4.75;;
75516;SDS011;64097;52.548;13.406;2023-09-08T10:21:14;5.40;;;4.90;;
75516;SDS011;64097;52.548;13.406;2023-09-08T10:23:49;6.78;;;4.80;;
75516;SDS011;64097;52.548;13.406;2023-09-08T10:26:20;5.13;;;4.68;;
75516;SDS011;64097;52.548;13.406;2023-09-08T10:28:51;4.40;;;4.00;;
75516;SDS011;64097;52.548;13.406;2023-09-08T10:31:25;6.68;;;4.45;;
75516;SDS011;64097;52.548;13.406;2023-09-08T10:33:54;7.90;;;4.78;;
75516;SDS011;64097;52.548;13.406;2023-09-08T10:36:20;6.38;;;4.50;;
75516;SDS011;64097;52.548;13.406;2023-09-08T10:38:46;12.32;;;5.05;;
75516;SDS011;64097;52.548;13.406;2023-09-08T10:43:43;9.88;;;4.95;;
75516;SDS011;64097;52.548;13.406;2023-09-08T10:46:23;10.35;;;4.55;;
75516;SDS011;64097;52.548;13.406;2023-09-08T10:48:52;13.02;;;4.65;;
75516;SDS011;64097;52.548;13.406;2023-09-08T10:53:47;7.72;;;4.57;;
75516;SDS011;64097;52.548;13.406;2023-09-08T10:56:14;5.25;;;4.38;;
75516;SDS011;64097;52.548;13.406;2023-09-08T10:58:40;5.32;;;4.43;;
75516;SDS011;64097;52.548;13.406;2023-09-08T11:01:13;6.22;;;4.72;;
75516;SDS011;64097;52.548;13.406;2023-09-08T11:03:43;5.80;;;4.70;;
75516;SDS011;64097;52.548;13.406;2023-09-08T11:08:38;4.93;;;4.43;;
75516;SDS011;64097;52.548;13.406;2023-09-08T11:11:06;6.32;;;4.50;;
75516;SDS011;64097;52.548;13.406;2023-09-08T11:13:32;5.90;;;4.00;;
75516;SDS011;64097;52.548;13.406;2023-09-08T11:15:58;10.13;;;4.80;;
75516;SDS011;64097;52.548;13.406;2023-09-08T11:18:27;6.13;;;4.93;;
75516;SDS011;64097;52.548;13.406;2023-09-08T11:20:54;5.13;;;4.65;;
75516;SDS011;64097;52.548;13.406;2023-09-08T11:23:20;5.70;;;4.63;;
75516;SDS011;64097;52.548;13.406;2023-09-08T11:25:47;4.95;;;4.50;;
75516;SDS011;64097;52.548;13.406;2023-09-08T11:28:15;5.55;;;5.03;;
75516;SDS011;64097;52.548;13.406;2023-09-08T11:30:41;5.05;;;3.97;;
75516;SDS011;64097;52.548;13.406;2023-09-08T11:33:14;5.93;;;4.53;;
75516;SDS011;64097;52.548;13.406;2023-09-08T11:35:40;5.95;;;4.78;;
75516;SDS011;64097;52.548;13.406;2023-09-08T11:38:09;5.43;;;4.78;;
75516;SDS011;64097;52.548;13.406;2023-09-08T11:40:35;5.60;;;5.10;;
75516;SDS011;64097;52.548;13.406;2023-09-08T11:43:02;5.40;;;4.70;;
75516;SDS011;64097;52.548;13.406;2023-09-08T11:45:28;4.93;;;4.20;;
75516;SDS011;64097;52.548;13.406;2023-09-08T11:47:55;4.30;;;3.90;;
75516;SDS011;64097;52.548;13.406;2023-09-08T11:50:22;6.10;;;4.65;;
75516;SDS011;64097;52.548;13.406;2023-09-08T11:52:49;6.80;;;4.20;;
75516;SDS011;64097;52.548;13.406;2023-09-08T11:55:16;5.55;;;4.70;;
75516;SDS011;64097;52.548;13.406;2023-09-08T11:57:44;5.32;;;4.75;;
75516;SDS011;64097;52.548;13.406;2023-09-08T12:00:12;4.93;;;4.43;;
75516;SDS011;64097;52.548;13.406;2023-09-08T12:02:43;5.03;;;4.50;;
75516;SDS011;64097;52.548;13.406;2023-09-08T12:05:13;7.28;;;4.85;;
75516;SDS011;64097;52.548;13.406;2023-09-08T12:07:45;5.50;;;4.97;;
75516;SDS011;64097;52.548;13.406;2023-09-08T12:10:11;5.22;;;4.72;;
75516;SDS011;64097;52.548;13.406;2023-09-08T12:12:47;6.85;;;4.75;;
75516;SDS011;64097;52.548;13.406;2023-09-08T12:15:31;5.60;;;4.88;;
75516;SDS011;64097;52.548;13.406;2023-09-08T12:18:02;5.03;;;4.50;;
75516;SDS011;64097;52.548;13.406;2023-09-08T12:23:03;6.45;;;4.38;;
75516;SDS011;64097;52.548;13.406;2023-09-08T12:25:30;4.30;;;3.85;;
75516;SDS011;64097;52.548;13.406;2023-09-08T12:28:00;5.05;;;4.55;;
75516;SDS011;64097;52.548;13.406;2023-09-08T12:30:26;4.82;;;4.32;;
75516;SDS011;64097;52.548;13.406;2023-09-08T12:32:58;4.90;;;4.43;;
75516;SDS011;64097;52.548;13.406;2023-09-08T12:35:26;5.38;;;4.88;;
75516;SDS011;64097;52.548;13.406;2023-09-08T12:38:02;5.43;;;4.20;;
75516;SDS011;64097;52.548;13.406;2023-09-08T12:40:33;6.43;;;4.28;;
75516;SDS011;64097;52.548;13.406;2023-09-08T12:43:01;5.95;;;4.22;;
75516;SDS011;64097;52.548;13.406;2023-09-08T12:45:27;7.85;;;4.32;;
75516;SDS011;64097;52.548;13.406;2023-09-08T12:47:58;8.15;;;4.85;;
75516;SDS011;64097;52.548;13.406;2023-09-08T12:50:25;5.40;;;4.35;;
75516;SDS011;64097;52.548;13.406;2023-09-08T12:55:17;5.93;;;4.93;;
75516;SDS011;64097;52.548;13.406;2023-09-08T12:57:43;4.68;;;4.28;;
75516;SDS011;64097;52.548;13.406;2023-09-08T13:00:09;4.50;;;4.00;;
75516;SDS011;64097;52.548;13.406;2023-09-08T13:02:35;5.82;;;4.25;;
75516;SDS011;64097;52.548;13.406;2023-09-08T13:05:02;5.07;;;4.32;;
75516;SDS011;64097;52.548;13.406;2023-09-08T13:07:29;5.50;;;4.50;;
75516;SDS011;64097;52.548;13.406;2023-09-08T13:09:54;4.00;;;3.67;;
75516;SDS011;64097;52.548;13.406;2023-09-08T13:12:20;5.10;;;4.20;;
75516;SDS011;64097;52.548;13.406;2023-09-08T13:14:46;6.25;;;4.25;;
75516;SDS011;64097;52.548;13.406;2023-09-08T13:17:12;4.40;;;4.00;;
75516;SDS011;64097;52.548;13.406;2023-09-08T13:19:40;10.88;;;4.57;;
75516;SDS011;64097;52.548;13.406;2023-09-08T13:22:06;4.15;;;3.75;;
75516;SDS011;64097;52.548;13.406;2023-09-08T13:24:32;8.32;;;4.72;;
75516;SDS011;64097;52.548;13.406;2023-09-08T13:26:59;4.90;;;4.40;;
75516;SDS011;64097;52.548;13.406;2023-09-08T13:29:25;5.07;;;4.30;;
75516;SDS011;64097;52.548;13.406;2023-09-08T13:31:54;4.68;;;4.28;;
75516;SDS011;64097;52.548;13.406;2023-09-08T13:34:21;5.30;;;4.80;;
75516;SDS011;64097;52.548;13.406;2023-09-08T13:36:46;4.80;;;4.38;;
75516;SDS011;64097;52.548;13.406;2023-09-08T13:39:13;5.30;;;4.60;;
75516;SDS011;64097;52.548;13.406;2023-09-08T13:41:45;4.25;;;3.95;;
75516;SDS011;64097;52.548;13.406;2023-09-08T13:44:11;5.70;;;4.13;;
75516;SDS011;64097;52.548;13.406;2023-09-08T13:46:36;5.65;;;4.05;;
75516;SDS011;64097;52.548;13.406;2023-09-08T13:49:02;6.53;;;4.25;;
75516;SDS011;64097;52.548;13.406;2023-09-08T13:53:54;4.88;;;4.15;;
75516;SDS011;64097;52.548;13.406;2023-09-08T13:56:19;4.10;;;3.80;;
75516;SDS011;64097;52.548;13.406;2023-09-08T13:58:45;4.57;;;4.18;;
